Time;durP1;ratioP1;P1;durP2;ratioP2;P2;SDS_P1;SDS_P2;PMS_P1;PMS_P2;Temp;Humidity;BMP_temperature;BMP_pressure;BME280_temperature;BME280_humidity;BME280_pressure;Samples;Min_cycle;Max_cycle;Signal;HPM_P1;HPM_P2
2024/02/05 00:01:24;;;;;;;16.15;4.50;;;;;;;12.89;100.00;102016.19;5218790;28;20040;-82
2024/02/05 00:03:56;;;;;;;14.80;4.53;;;;;;;12.98;100.00;102021.72;5218532;28;20503;-82
2024/02/05 00:06:27;;;;;;;16.20;4.10;;;;;;;12.91;100.00;102019.53;5218370;28;20088;-81
2024/02/05 00:08:59;;;;;;;13.18;3.70;;;;;;;12.89;100.00;102015.34;5217568;28;20041;-81
2024/02/05 00:11:34;;;;;;;13.75;3.88;;;;;;;12.98;100.00;102029.59;5217390;28;20376;-81
2024/02/05 00:14:06;;;;;;;15.70;4.03;;;;;;;12.88;100.00;102032.94;5216681;28;20045;-81
2024/02/05 00:16:38;;;;;;;16.33;4.28;;;;;;;12.82;100.00;102024.66;5216278;28;20480;-82
2024/02/05 00:19:12;;;;;;;11.45;3.80;;;;;;;12.88;100.00;102026.84;5215118;28;20061;-81
2024/02/05 00:21:44;;;;;;;14.07;3.58;;;;;;;12.79;100.00;102015.22;5216531;28;20653;-81
2024/02/05 00:24:16;;;;;;;15.15;4.45;;;;;;;12.79;100.00;102031.00;5217843;28;20039;-82
2024/02/05 00:26:48;;;;;;;16.58;4.60;;;;;;;12.78;100.00;102020.59;5218008;28;20296;-81
2024/02/05 00:29:20;;;;;;;12.68;3.80;;;;;;;12.74;100.00;102024.41;5219508;28;20525;-81
2024/02/05 00:31:51;;;;;;;14.07;4.00;;;;;;;12.64;100.00;102029.50;5217904;28;20034;-81
2024/02/05 00:34:23;;;;;;;13.57;5.03;;;;;;;12.62;100.00;102013.03;5221157;28;20041;-81
2024/02/05 00:36:55;;;;;;;15.30;4.35;;;;;;;12.63;100.00;102025.22;5222937;28;20036;-81
2024/02/05 00:39:28;;;;;;;15.95;4.07;;;;;;;12.51;100.00;102019.06;5219797;28;20037;-81
2024/02/05 00:42:00;;;;;;;17.40;4.20;;;;;;;12.52;100.00;102026.00;5219811;28;20400;-81
2024/02/05 00:44:32;;;;;;;14.98;4.10;;;;;;;12.44;100.00;102011.75;5221228;28;20025;-81
2024/02/05 00:47:04;;;;;;;20.80;6.07;;;;;;;12.46;100.00;102025.59;5220356;28;20037;-81
2024/02/05 00:49:36;;;;;;;18.10;5.25;;;;;;;12.54;100.00;102025.88;5220480;28;20076;-81
2024/02/05 00:52:10;;;;;;;18.65;4.75;;;;;;;12.40;100.00;102019.88;5223115;28;20038;-82
2024/02/05 00:54:42;;;;;;;18.90;4.70;;;;;;;12.32;100.00;102013.50;5220439;28;20033;-81
2024/02/05 00:57:14;;;;;;;17.65;5.25;;;;;;;12.30;100.00;102023.28;5219436;28;20037;-81
2024/02/05 00:59:46;;;;;;;16.60;4.70;;;;;;;12.30;100.00;102021.47;5221821;28;20232;-81
2024/02/05 01:02:18;;;;;;;17.48;5.35;;;;;;;12.23;100.00;102022.88;5218488;28;20052;-81
2024/02/05 01:04:50;;;;;;;21.90;4.80;;;;;;;12.29;100.00;102025.06;5222615;28;20029;-81
2024/02/05 01:07:22;;;;;;;16.45;5.28;;;;;;;12.20;100.00;102017.00;5221629;28;20034;-81
2024/02/05 01:09:54;;;;;;;16.88;4.68;;;;;;;12.20;100.00;102028.38;5220743;28;20030;-81
2024/02/05 01:12:26;;;;;;;17.25;5.50;;;;;;;12.16;100.00;102024.31;5220354;28;20522;-81
2024/02/05 01:14:58;;;;;;;20.20;4.95;;;;;;;12.14;100.00;102034.06;5221154;28;20434;-81
2024/02/05 01:17:30;;;;;;;16.08;4.43;;;;;;;12.09;100.00;102030.94;5218954;28;20375;-81
2024/02/05 01:20:01;;;;;;;20.85;5.10;;;;;;;12.05;100.00;102029.50;5218325;28;20049;-81
2024/02/05 01:22:33;;;;;;;18.33;4.85;;;;;;;12.01;100.00;102018.38;5219163;28;20025;-81
2024/02/05 01:25:05;;;;;;;22.23;5.15;;;;;;;12.06;100.00;102026.75;5218774;28;20030;-81
2024/02/05 01:27:37;;;;;;;17.50;5.88;;;;;;;11.99;100.00;102024.66;5219122;28;20037;-81
2024/02/05 01:30:10;;;;;;;20.23;5.40;;;;;;;11.99;100.00;102015.00;5222542;28;20029;-81
2024/02/05 01:32:42;;;;;;;24.42;6.82;;;;;;;12.02;100.00;102030.53;5221472;28;20305;-81
2024/02/05 01:35:14;;;;;;;19.73;5.70;;;;;;;11.98;100.00;102028.25;5216765;28;20034;-81
2024/02/05 01:37:46;;;;;;;23.48;5.97;;;;;;;11.97;100.00;102016.06;5219892;28;20033;-82
2024/02/05 01:40:18;;;;;;;19.73;5.63;;;;;;;12.00;100.00;102034.22;5220655;28;20033;-81
2024/02/05 01:42:50;;;;;;;20.27;6.10;;;;;;;12.02;100.00;102017.41;5216443;28;20029;-82
2024/02/05 01:45:22;;;;;;;21.03;5.73;;;;;;;12.06;100.00;102010.97;5219719;28;20041;-82
2024/02/05 01:47:54;;;;;;;18.92;5.63;;;;;;;12.04;100.00;102010.25;5220859;28;20044;-82
2024/02/05 01:50:27;;;;;;;16.67;5.50;;;;;;;12.10;100.00;102015.06;5223186;28;20037;-82
2024/02/05 01:53:00;;;;;;;14.57;4.60;;;;;;;12.20;100.00;102017.00;5219145;28;20311;-81
2024/02/05 01:55:32;;;;;;;;;;;;;;;12.60;100.00;102015.75;5220895;28;20045;-82
2024/02/05 01:58:04;;;;;;;23.63;6.88;;;;;;;12.11;100.00;102005.38;5217973;28;20527;-82
2024/02/05 02:00:36;;;;;;;18.65;5.38;;;;;;;12.08;100.00;102002.97;5218870;28;20037;-82
2024/02/05 02:03:11;;;;;;;19.27;5.22;;;;;;;12.08;100.00;102001.19;5218894;28;20033;-82
2024/02/05 02:05:44;;;;;;;21.15;5.65;;;;;;;12.11;100.00;102003.59;5219461;28;20225;-82
2024/02/05 02:08:22;;;;;;;17.90;5.75;;;;;;;12.16;100.00;101991.00;5218643;28;20033;-82
2024/02/05 02:10:54;;;;;;;21.33;5.72;;;;;;;12.07;100.00;101999.53;5219447;28;20026;-82
2024/02/05 02:13:26;;;;;;;18.73;5.80;;;;;;;12.10;100.00;101991.41;5218456;28;20044;-81
2024/02/05 02:16:00;;;;;;;15.70;5.22;;;;;;;12.06;100.00;101995.22;5215805;28;20041;-81
2024/02/05 02:18:35;;;;;;;22.92;6.50;;;;;;;12.07;100.00;101998.69;5215863;28;20044;-82
2024/02/05 02:21:09;;;;;;;18.85;6.47;;;;;;;11.97;100.00;101984.53;5218728;28;20041;-82
2024/02/05 02:23:43;;;;;;;17.92;6.55;;;;;;;11.98;100.00;101989.69;5220488;28;20025;-81
2024/02/05 02:26:15;;;;;;;18.95;5.68;;;;;;;12.01;100.00;101991.25;5218271;28;20026;-82
2024/02/05 02:28:48;;;;;;;26.88;7.25;;;;;;;12.07;100.00;101991.63;5218228;28;20059;-81
2024/02/05 02:31:24;;;;;;;16.05;5.60;;;;;;;12.14;100.00;101998.13;5217811;28;20060;-81
2024/02/05 02:34:10;;;;;;;22.40;6.47;;;;;;;12.20;100.00;101988.09;5217028;28;20053;-82
2024/02/05 02:36:55;;;;;;;22.42;7.20;;;;;;;12.16;100.00;101987.53;5216839;28;20052;-82
2024/02/05 02:39:33;;;;;;;21.42;6.18;;;;;;;12.16;100.00;101988.34;5215255;28;20390;-82
2024/02/05 02:42:06;;;;;;;23.35;7.03;;;;;;;12.14;100.00;101992.88;5215616;28;20399;-81
2024/02/05 02:44:38;;;;;;;19.95;6.75;;;;;;;12.19;100.00;101995.16;5218331;28;20384;-81
2024/02/05 02:47:10;;;;;;;20.70;6.55;;;;;;;12.17;100.00;102005.78;5219821;28;20038;-82
2024/02/05 02:49:42;;;;;;;18.67;6.72;;;;;;;12.03;100.00;101997.22;5214345;28;20065;-81
2024/02/05 02:52:14;;;;;;;19.50;6.32;;;;;;;12.03;100.00;101992.81;5218028;28;20034;-81
2024/02/05 02:54:46;;;;;;;22.15;6.90;;;;;;;12.01;100.00;101994.72;5220730;28;20041;-81
2024/02/05 02:57:19;;;;;;;25.30;6.80;;;;;;;12.07;100.00;102004.78;5218254;28;20037;-82
2024/02/05 02:59:51;;;;;;;20.42;6.32;;;;;;;12.02;100.00;101995.56;5217210;28;20033;-82
2024/02/05 03:02:24;;;;;;;19.52;6.93;;;;;;;12.02;100.00;102006.91;5214964;28;20029;-82
2024/02/05 03:04:58;;;;;;;19.92;6.72;;;;;;;12.09;100.00;102002.06;5216989;28;20029;-81
2024/02/05 03:07:34;;;;;;;21.77;7.07;;;;;;;12.05;100.00;102001.44;5217325;28;20407;-81
2024/02/05 03:10:07;;;;;;;21.35;7.05;;;;;;;11.97;100.00;101993.28;5221074;28;20036;-81
2024/02/05 03:12:39;;;;;;;20.05;6.85;;;;;;;11.97;100.00;101981.91;5218788;28;20030;-82
2024/02/05 03:15:11;;;;;;;18.27;7.80;;;;;;;12.01;100.00;101994.72;5219389;28;20391;-82
2024/02/05 03:17:43;;;;;;;23.17;7.15;;;;;;;12.00;100.00;101994.81;5235385;28;20041;-82
2024/02/05 03:20:33;;;;;;;20.10;7.95;;;;;;;12.26;100.00;101996.38;5219431;28;20049;-82
2024/02/05 03:23:07;;;;;;;23.55;7.50;;;;;;;12.11;100.00;101997.50;5213994;28;20468;-81
2024/02/05 03:25:39;;;;;;;23.48;7.30;;;;;;;12.15;100.00;102001.59;5215556;28;20041;-82
2024/02/05 03:28:11;;;;;;;22.85;7.93;;;;;;;12.12;100.00;101997.41;5217330;28;20488;-82
2024/02/05 03:30:43;;;;;;;21.35;6.95;;;;;;;12.04;100.00;101989.22;5217085;28;20037;-81
2024/02/05 03:33:15;;;;;;;22.50;7.55;;;;;;;12.03;100.00;101977.06;5217524;28;20496;-81
2024/02/05 03:35:47;;;;;;;19.08;8.20;;;;;;;12.06;100.00;101991.75;5218020;28;20038;-82
2024/02/05 03:38:19;;;;;;;21.35;7.53;;;;;;;12.05;100.00;101990.94;5215777;28;20036;-81
2024/02/05 03:40:51;;;;;;;20.50;7.25;;;;;;;12.08;100.00;101998.56;5215079;28;20036;-81
2024/02/05 03:43:22;;;;;;;21.83;7.78;;;;;;;12.08;100.00;101985.44;5217480;28;20387;-82
2024/02/05 03:45:54;;;;;;;25.17;7.85;;;;;;;12.06;100.00;101997.00;5216177;28;20200;-82
2024/02/05 03:48:26;;;;;;;21.98;8.25;;;;;;;12.03;100.00;101991.97;5213188;28;20034;-81
2024/02/05 03:50:58;;;;;;;27.73;8.15;;;;;;;11.95;100.00;101981.19;5218178;28;20033;-81
2024/02/05 03:53:30;;;;;;;25.90;8.75;;;;;;;12.01;100.00;101994.72;5217066;28;20047;-81
2024/02/05 03:56:02;;;;;;;23.45;7.80;;;;;;;12.02;100.00;101991.16;5212713;28;20042;-81
2024/02/05 03:58:34;;;;;;;25.05;9.23;;;;;;;12.01;100.00;101997.34;5212281;28;20029;-82
2024/02/05 04:01:06;;;;;;;24.35;8.75;;;;;;;12.01;100.00;101996.50;5217976;28;20467;-81
2024/02/05 04:03:38;;;;;;;22.92;8.25;;;;;;;11.93;100.00;101997.91;5220252;28;20367;-82
2024/02/05 04:06:10;;;;;;;24.02;8.68;;;;;;;11.95;100.00;101989.06;5218629;28;20068;-81
2024/02/05 04:08:42;;;;;;;22.10;8.82;;;;;;;11.83;100.00;101981.13;5219069;28;20030;-82
2024/02/05 04:11:13;;;;;;;17.88;7.75;;;;;;;11.97;100.00;101990.66;5221281;28;20033;-80
2024/02/05 04:13:46;;;;;;;18.02;7.82;;;;;;;12.01;100.00;101993.88;5215912;28;20034;-81
2024/02/05 04:16:17;;;;;;;26.20;8.82;;;;;;;11.93;100.00;101997.03;5215744;28;20507;-81
2024/02/05 04:18:49;;;;;;;21.88;8.07;;;;;;;11.87;100.00;101987.84;5217890;28;20041;-81
2024/02/05 04:21:21;;;;;;;20.73;8.60;;;;;;;11.84;100.00;101988.06;5218903;28;20043;-81
2024/02/05 04:23:53;;;;;;;23.73;7.70;;;;;;;11.82;100.00;101984.69;5217183;28;20029;-81
2024/02/05 04:26:25;;;;;;;22.45;7.45;;;;;;;11.91;100.00;101997.16;5217550;28;20315;-81
2024/02/05 04:28:57;;;;;;;19.90;8.50;;;;;;;11.82;100.00;102003.06;5216075;28;20044;-82
2024/02/05 04:31:29;;;;;;;23.33;7.82;;;;;;;11.86;100.00;101994.03;5217496;28;20554;-82
2024/02/05 04:34:01;;;;;;;22.15;7.45;;;;;;;11.81;100.00;102000.53;5218096;28;20030;-82
2024/02/05 04:36:33;;;;;;;20.23;6.88;;;;;;;11.78;100.00;102006.00;5214422;28;20049;-81
2024/02/05 04:39:10;;;;;;;21.38;7.40;;;;;;;11.75;100.00;102004.44;5213492;28;20400;-81
2024/02/05 04:41:41;;;;;;;20.48;6.85;;;;;;;11.70;100.00;101990.78;5216108;28;20025;-81
2024/02/05 04:44:16;;;;;;;22.38;7.55;;;;;;;11.72;100.00;102001.19;5217518;28;20509;-82
2024/02/05 04:46:48;;;;;;;23.30;9.02;;;;;;;11.65;100.00;102003.41;5215095;28;20042;-82
2024/02/05 04:49:20;;;;;;;22.13;7.80;;;;;;;11.63;100.00;101979.03;5215774;28;20116;-81
2024/02/05 04:51:52;;;;;;;19.77;8.70;;;;;;;11.70;100.00;102001.28;5216000;28;20065;-81
2024/02/05 04:54:24;;;;;;;21.60;8.45;;;;;;;11.67;100.00;101985.78;5217686;28;20048;-82
2024/02/05 04:56:56;;;;;;;22.55;8.85;;;;;;;11.63;100.00;101984.28;5216131;28;21043;-81
2024/02/05 04:59:28;;;;;;;23.08;7.80;;;;;;;11.63;100.00;101979.91;5215461;28;20029;-81
2024/02/05 05:02:00;;;;;;;22.52;8.43;;;;;;;11.63;100.00;101986.91;5217404;28;20048;-82
2024/02/05 05:04:33;;;;;;;23.58;9.25;;;;;;;11.67;100.00;101981.38;5218408;28;20479;-81
2024/02/05 05:07:05;;;;;;;24.05;8.25;;;;;;;11.73;100.00;101974.00;5216006;28;20052;-81
2024/02/05 05:09:36;;;;;;;22.35;8.02;;;;;;;11.66;100.00;101971.78;5217038;28;20387;-81
2024/02/05 05:12:08;;;;;;;25.80;9.68;;;;;;;11.73;100.00;101974.00;5218567;28;20043;-81
2024/02/05 05:14:41;;;;;;;25.98;9.02;;;;;;;11.69;100.00;101968.94;5217507;28;20037;-81
2024/02/05 05:17:13;;;;;;;24.60;10.02;;;;;;;11.77;100.00;101972.81;5220125;28;20021;-81
2024/02/05 05:19:45;;;;;;;21.60;8.50;;;;;;;11.72;100.00;101970.53;5215145;28;20037;-81
2024/02/05 05:22:17;;;;;;;21.65;8.90;;;;;;;11.67;100.00;101983.16;5218159;28;20045;-82
2024/02/05 05:24:49;;;;;;;20.02;8.77;;;;;;;11.62;100.00;101975.59;5220431;28;20395;-81
2024/02/05 05:27:20;;;;;;;22.17;8.25;;;;;;;11.67;100.00;101988.41;5217330;28;20026;-81
2024/02/05 05:29:52;;;;;;;20.48;8.18;;;;;;;11.64;100.00;101984.19;5217039;28;20399;-81
2024/02/05 05:32:24;;;;;;;25.58;9.88;;;;;;;11.58;100.00;101968.88;5219801;28;20026;-81
2024/02/05 05:34:57;;;;;;;25.77;9.95;;;;;;;11.56;100.00;101973.41;5218684;28;20038;-81
2024/02/05 05:37:30;;;;;;;22.27;8.82;;;;;;;11.58;100.00;101962.78;5221308;28;20040;-82
2024/02/05 05:40:04;;;;;;;24.50;8.88;;;;;;;11.53;100.00;101964.91;5215842;28;20507;-82
2024/02/05 05:42:36;;;;;;;26.42;8.60;;;;;;;11.53;100.00;101971.00;5226452;28;20049;-81
2024/02/05 05:45:08;;;;;;;24.40;9.45;;;;;;;11.54;100.00;101967.41;5217060;28;20052;-83
2024/02/05 05:47:42;;;;;;;22.65;9.35;;;;;;;11.49;100.00;101969.53;5209974;28;20049;-81
2024/02/05 05:50:14;;;;;;;26.20;8.18;;;;;;;11.49;100.00;101951.16;5218280;28;20056;-82
2024/02/05 05:52:46;;;;;;;22.85;9.48;;;;;;;11.50;100.00;101962.50;5218513;28;20029;-82
2024/02/05 05:55:20;;;;;;;21.25;8.55;;;;;;;11.41;100.00;101964.84;5217598;28;20041;-81
2024/02/05 05:57:52;;;;;;;25.33;8.10;;;;;;;11.45;100.00;101966.28;5217942;28;20034;-81
2024/02/05 06:00:24;;;;;;;19.63;7.95;;;;;;;11.34;100.00;101962.75;5213564;28;20471;-81
2024/02/05 06:02:56;;;;;;;28.95;8.52;;;;;;;11.40;100.00;101959.69;5215674;28;20399;-81
2024/02/05 06:05:28;;;;;;;23.73;7.65;;;;;;;11.45;100.00;101970.72;5217414;28;20399;-81
2024/02/05 06:08:00;;;;;;;21.50;8.05;;;;;;;11.40;100.00;101967.53;5216480;28;20049;-81
2024/02/05 06:10:32;;;;;;;21.33;7.43;;;;;;;11.32;100.00;101965.47;5232504;28;20067;-81
2024/02/05 06:13:04;;;;;;;29.90;9.50;;;;;;;11.35;100.00;101972.28;5213743;28;20042;-81
2024/02/05 06:15:36;;;;;;;25.15;7.50;;;;;;;11.33;100.00;101971.56;5214845;28;20033;-80
2024/02/05 06:18:08;;;;;;;22.23;8.40;;;;;;;11.38;100.00;101967.66;5219452;28;20479;-81
2024/02/05 06:20:40;;;;;;;24.45;8.60;;;;;;;11.40;100.00;101955.28;5217263;28;20137;-82
2024/02/05 06:23:11;;;;;;;18.70;6.93;;;;;;;11.33;100.00;101948.81;5217182;28;20029;-81
2024/02/05 06:25:43;;;;;;;21.15;7.55;;;;;;;11.36;100.00;101959.06;5214789;28;20025;-81
2024/02/05 06:28:16;;;;;;;25.23;7.45;;;;;;;11.34;100.00;101960.97;5216916;28;20569;-81
2024/02/05 06:30:50;;;;;;;22.83;8.00;;;;;;;11.33;100.00;101950.59;5219520;28;20680;-82
2024/02/05 06:33:22;;;;;;;23.42;7.45;;;;;;;11.38;100.00;101972.91;5217422;28;20030;-82
2024/02/05 06:35:54;;;;;;;23.45;7.95;;;;;;;11.33;100.00;101971.56;5218212;28;20398;-81
2024/02/05 06:38:25;;;;;;;23.10;7.68;;;;;;;11.28;100.00;101969.25;5216632;28;20037;-80
2024/02/05 06:40:57;;;;;;;22.23;7.40;;;;;;;11.28;100.00;101964.00;5219383;28;20026;-81
2024/02/05 06:43:29;;;;;;;21.10;7.47;;;;;;;11.31;100.00;101968.22;5218253;28;20663;-79
2024/02/05 06:46:03;;;;;;;17.33;6.50;;;;;;;11.26;100.00;101954.59;5216173;28;20042;-80
2024/02/05 06:48:34;;;;;;;18.42;6.72;;;;;;;11.32;100.00;101973.34;5217302;28;20426;-81
2024/02/05 06:51:06;;;;;;;24.50;7.18;;;;;;;11.30;100.00;101972.63;5217499;28;20044;-81
2024/02/05 06:53:38;;;;;;;16.60;6.35;;;;;;;11.29;100.00;101970.09;5218069;28;20030;-80
2024/02/05 06:56:10;;;;;;;17.77;6.65;;;;;;;11.24;100.00;101980.06;5217939;28;20553;-82
2024/02/05 06:58:42;;;;;;;21.98;7.30;;;;;;;11.28;100.00;101985.00;5218163;28;20034;-81
2024/02/05 07:01:14;;;;;;;28.50;7.82;;;;;;;11.22;100.00;101969.69;5215776;28;20497;-81
2024/02/05 07:03:46;;;;;;;25.95;7.82;;;;;;;11.27;100.00;101974.63;5215334;28;20029;-80
2024/02/05 07:06:18;;;;;;;19.25;6.80;;;;;;;11.26;100.00;101971.16;5221786;28;20029;-81
2024/02/05 07:08:49;;;;;;;21.30;6.70;;;;;;;11.25;100.00;101969.50;5214557;28;20033;-82
2024/02/05 07:11:21;;;;;;;21.05;7.05;;;;;;;11.23;100.00;101970.53;5218087;28;20037;-81
2024/02/05 07:13:53;;;;;;;24.83;7.75;;;;;;;11.24;100.00;101975.66;5217362;28;20555;-81
2024/02/05 07:16:25;;;;;;;23.42;7.60;;;;;;;11.22;100.00;101964.44;5216255;28;20050;-81
2024/02/05 07:18:57;;;;;;;23.90;7.20;;;;;;;11.21;100.00;101965.38;5216433;28;20041;-80
2024/02/05 07:21:30;;;;;;;24.20;7.60;;;;;;;11.18;100.00;101973.47;5217332;28;20025;-81
2024/02/05 07:24:01;;;;;;;25.87;8.70;;;;;;;11.19;100.00;101975.16;5217742;28;20026;-82
2024/02/05 07:26:36;;;;;;;20.95;8.10;;;;;;;11.23;100.00;101987.09;5219104;28;20367;-81
2024/02/05 07:29:07;;;;;;;18.75;7.43;;;;;;;11.16;100.00;101968.31;5212157;28;20507;-80
2024/02/05 07:31:39;;;;;;;21.88;7.38;;;;;;;11.11;100.00;101974.84;5217351;28;20770;-80
2024/02/05 07:34:11;;;;;;;23.10;7.90;;;;;;;11.07;100.00;101976.84;5214133;28;20049;-81
2024/02/05 07:36:43;;;;;;;23.80;7.43;;;;;;;11.16;100.00;101991.94;5218052;28;20479;-80
2024/02/05 07:39:15;;;;;;;21.05;6.78;;;;;;;11.18;100.00;101995.31;5219474;28;20041;-82
2024/02/05 07:41:47;;;;;;;19.25;7.13;;;;;;;11.14;100.00;101990.38;5215825;28;20037;-81
2024/02/05 07:44:19;;;;;;;21.38;8.13;;;;;;;11.16;100.00;101991.94;5218935;28;20037;-81
2024/02/05 07:46:51;;;;;;;22.30;8.15;;;;;;;11.16;100.00;101996.34;5219177;28;20083;-81
2024/02/05 07:49:25;;;;;;;26.90;7.32;;;;;;;11.14;100.00;102003.50;5215706;28;20049;-81
2024/02/05 07:51:58;;;;;;;20.95;7.63;;;;;;;11.06;100.00;101997.91;5219681;28;20033;-80
2024/02/05 07:54:30;;;;;;;18.65;8.02;;;;;;;11.09;100.00;102002.94;5219081;28;20038;-80
2024/02/05 07:57:02;;;;;;;28.02;9.07;;;;;;;11.08;100.00;101996.03;5220447;28;20048;-82
2024/02/05 07:59:34;;;;;;;29.67;8.85;;;;;;;11.09;100.00;101995.91;5222896;28;20033;-81
2024/02/05 08:02:06;;;;;;;22.90;7.82;;;;;;;11.12;100.00;102005.38;5222885;28;20445;-81
2024/02/05 08:04:38;;;;;;;20.80;7.78;;;;;;;11.12;100.00;102005.38;5222799;28;20398;-80
2024/02/05 08:07:10;;;;;;;19.05;7.43;;;;;;;11.14;100.00;101998.25;5221306;28;20044;-82
2024/02/05 08:09:41;;;;;;;22.77;8.13;;;;;;;11.20;100.00;102003.03;5223186;28;20033;-81
2024/02/05 08:12:13;;;;;;;22.13;7.63;;;;;;;11.23;100.00;102008.09;5221508;28;20029;-81
2024/02/05 08:14:46;;;;;;;21.38;8.00;;;;;;;11.28;100.00;102011.22;5218576;28;20617;-81
2024/02/05 08:17:21;;;;;;;23.65;7.70;;;;;;;11.38;100.00;101998.31;5219309;28;20033;-81
2024/02/05 08:19:53;;;;;;;19.48;7.18;;;;;;;11.24;100.00;101995.81;5216635;28;20073;-82
2024/02/05 08:22:28;;;;;;;24.35;7.50;;;;;;;11.28;100.00;101997.28;5219870;28;20042;-80
2024/02/05 08:25:00;;;;;;;19.73;6.90;;;;;;;11.29;100.00;102009.44;5217958;28;21497;-81
2024/02/05 08:27:31;;;;;;;24.25;6.72;;;;;;;11.28;100.00;102013.00;5216962;28;20040;-81
2024/02/05 08:30:04;;;;;;;23.13;6.88;;;;;;;11.36;100.00;102016.78;5218206;28;20026;-82
2024/02/05 08:32:36;;;;;;;19.30;6.10;;;;;;;11.35;100.00;102006.41;5220035;28;20685;-81
2024/02/05 08:35:08;;;;;;;22.50;6.30;;;;;;;11.31;100.00;102010.19;5218223;28;20038;-81
2024/02/05 08:37:40;;;;;;;23.48;7.30;;;;;;;11.35;100.00;102009.84;5222240;28;20038;-80
2024/02/05 08:40:13;;;;;;;24.27;8.38;;;;;;;11.43;100.00;102004.06;5235152;28;20041;-80
2024/02/05 08:42:45;;;;;;;19.02;6.38;;;;;;;11.38;100.00;102007.03;5219955;28;20033;-80
2024/02/05 08:45:18;;;;;;;18.45;6.07;;;;;;;11.36;100.00;102011.53;5218853;28;20063;-81
2024/02/05 08:47:52;;;;;;;17.95;5.95;;;;;;;11.39;100.00;102003.44;5212585;28;20379;-80
2024/02/05 08:50:29;;;;;;;24.38;7.05;;;;;;;11.40;100.00;102005.16;5216965;28;20038;-80
2024/02/05 08:53:04;;;;;;;22.73;6.43;;;;;;;11.42;100.00;102000.63;5217571;28;20041;-81
2024/02/05 08:55:38;;;;;;;23.58;7.00;;;;;;;11.36;100.00;102011.53;5220375;28;20046;-80
2024/02/05 08:58:10;;;;;;;17.58;5.75;;;;;;;11.40;100.00;102009.53;5216923;28;20028;-80
2024/02/05 09:00:42;;;;;;;21.40;5.72;;;;;;;11.41;100.00;101991.06;5217639;28;20064;-80
2024/02/05 09:03:14;;;;;;;21.42;7.13;;;;;;;11.43;100.00;101999.66;5217937;28;20026;-82
2024/02/05 09:05:51;;;;;;;18.67;5.78;;;;;;;11.53;100.00;102004.28;5216881;28;20555;-81
2024/02/05 09:08:23;;;;;;;17.73;5.32;;;;;;;11.41;100.00;102000.75;5215314;28;20404;-81
2024/02/05 09:10:55;;;;;;;16.80;5.13;;;;;;;11.49;100.00;102008.06;5217512;28;20197;-81
2024/02/05 09:13:26;;;;;;;25.40;6.78;;;;;;;11.51;100.00;101988.63;5215272;28;20059;-81
2024/02/05 09:15:58;;;;;;;19.77;5.72;;;;;;;11.38;100.00;102001.78;5219995;28;20342;-81
2024/02/05 09:18:30;;;;;;;17.85;6.45;;;;;;;11.50;100.00;101999.25;5218786;28;20044;-82
2024/02/05 09:21:02;;;;;;;20.42;5.90;;;;;;;11.46;100.00;102003.88;5218694;28;20288;-82
2024/02/05 09:23:36;;;;;;;22.88;6.53;;;;;;;11.56;100.00;102009.31;5212851;28;20025;-82
2024/02/05 09:26:09;;;;;;;18.20;5.68;;;;;;;11.62;100.00;102003.63;5218188;28;20033;-80
2024/02/05 09:28:44;;;;;;;22.33;5.40;;;;;;;11.53;100.00;101991.16;5216251;28;20044;-81
2024/02/05 09:31:15;;;;;;;16.73;6.05;;;;;;;11.62;100.00;102001.00;5216068;28;20033;-81
2024/02/05 09:33:48;;;;;;;18.15;5.55;;;;;;;11.58;100.00;101987.25;5216432;28;20029;-81
2024/02/05 09:36:21;;;;;;;18.70;4.88;;;;;;;11.59;100.00;101975.81;5216736;28;20038;-81
2024/02/05 09:38:53;;;;;;;20.92;5.75;;;;;;;11.73;100.00;101990.56;5212812;28;20037;-82
2024/02/05 09:41:35;;;;;;;17.05;5.13;;;;;;;11.97;100.00;101997.66;5214548;28;20355;-81
2024/02/05 09:44:08;;;;;;;19.25;5.43;;;;;;;11.84;100.00;101992.47;5215218;28;20521;-81
2024/02/05 09:46:44;;;;;;;16.90;4.40;;;;;;;11.91;100.00;102001.59;5217671;28;20044;-81
2024/02/05 09:49:21;;;;;;;22.35;5.57;;;;;;;11.71;100.00;101989.03;5219338;28;20324;-81
2024/02/05 09:51:53;;;;;;;18.58;5.68;;;;;;;11.82;100.00;101982.06;5215183;28;20506;-81
2024/02/05 09:54:25;;;;;;;19.65;5.60;;;;;;;11.86;100.00;101988.78;5217528;28;20042;-81
2024/02/05 09:56:59;;;;;;;20.33;5.15;;;;;;;11.99;100.00;101990.53;5218434;28;20472;-81
2024/02/05 09:59:31;;;;;;;18.38;5.18;;;;;;;11.87;100.00;101985.22;5216574;28;20123;-81
2024/02/05 10:02:06;;;;;;;19.92;4.88;;;;;;;11.97;100.00;101976.66;5217797;28;20029;-81
2024/02/05 10:04:42;;;;;;;18.95;5.13;;;;;;;12.09;100.00;101981.88;5216939;28;20034;-81
2024/02/05 10:07:18;;;;;;;22.58;5.82;;;;;;;12.01;100.00;101980.72;5216685;28;20037;-81
2024/02/05 10:09:50;;;;;;;21.92;5.55;;;;;;;11.90;100.00;101971.88;5218521;28;20419;-81
2024/02/05 10:12:25;;;;;;;18.25;4.93;;;;;;;12.02;100.00;101975.38;5219301;28;20033;-81
2024/02/05 10:14:58;;;;;;;17.77;5.63;;;;;;;11.81;100.00;101966.41;5217009;28;20042;-81
2024/02/05 10:17:29;;;;;;;17.52;5.30;;;;;;;12.00;100.00;101958.88;5217568;28;20033;-81
2024/02/05 10:20:02;;;;;;;16.25;4.88;;;;;;;12.07;100.00;101975.88;5216723;28;20403;-81
2024/02/05 10:22:43;;;;;;;21.58;5.32;;;;;;;12.12;100.00;101965.03;5215834;28;20475;-81
2024/02/05 10:25:16;;;;;;;18.80;4.60;;;;;;;12.07;100.00;101961.91;5216525;28;20034;-81
2024/02/05 10:27:47;;;;;;;14.05;5.30;;;;;;;12.19;100.00;101963.63;5221380;28;20029;-81
2024/02/05 10:30:19;;;;;;;25.60;6.32;;;;;;;12.20;100.00;101978.47;5216917;28;20041;-81
2024/02/05 10:32:58;;;;;;;16.83;4.43;;;;;;;12.31;100.00;101965.38;5217567;28;20380;-81
2024/02/05 10:35:31;;;;;;;19.95;5.40;;;;;;;12.26;100.00;101959.59;5219480;28;20033;-81
2024/02/05 10:38:08;;;;;;;19.90;5.20;;;;;;;12.48;100.00;101966.72;5217155;28;20040;-81
2024/02/05 10:40:40;;;;;;;19.02;5.30;;;;;;;12.36;100.00;101959.78;5216816;28;20044;-81
2024/02/05 10:43:12;;;;;;;19.10;5.30;;;;;;;12.26;100.00;101962.22;5215508;28;20506;-81
2024/02/05 10:45:44;;;;;;;20.95;4.82;;;;;;;12.34;100.00;101969.53;5219036;28;20112;-82
2024/02/05 10:48:16;;;;;;;20.63;4.85;;;;;;;12.29;100.00;101966.44;5218154;28;20034;-81
2024/02/05 10:50:49;;;;;;;18.67;5.00;;;;;;;12.35;100.00;101969.44;5230036;28;20048;-82
2024/02/05 10:53:23;;;;;;;20.83;5.07;;;;;;;12.57;100.00;101967.81;5221354;28;20076;-81
2024/02/05 10:55:56;;;;;;;22.50;6.07;;;;;;;12.54;100.00;101965.41;5215689;28;20021;-82
2024/02/05 10:58:28;;;;;;;17.80;4.80;;;;;;;12.50;100.00;101963.97;5215599;28;20525;-81
2024/02/05 11:01:02;;;;;;;15.45;4.85;;;;;;;12.53;100.00;101966.38;5217101;28;20042;-81
2024/02/05 11:03:37;;;;;;;25.00;5.22;;;;;;;12.55;100.00;101969.75;5215980;28;20029;-82
2024/02/05 11:06:12;;;;;;;16.85;5.20;;;;;;;12.61;100.00;101954.34;5217386;28;20037;-82
2024/02/05 11:08:46;;;;;;;21.30;5.13;;;;;;;12.70;100.00;101954.59;5215680;28;20483;-81
2024/02/05 11:11:19;;;;;;;18.52;5.15;;;;;;;12.71;100.00;101946.59;5211442;28;20040;-81
2024/02/05 11:13:56;;;;;;;20.40;4.93;;;;;;;12.83;100.00;101952.69;5213153;28;20037;-82
2024/02/05 11:16:32;;;;;;;16.88;4.80;;;;;;;12.69;100.00;101934.50;5216472;28;20033;-82
2024/02/05 11:19:07;;;;;;;17.58;4.72;;;;;;;12.62;100.00;101924.47;5216749;28;20423;-81
2024/02/05 11:21:48;;;;;;;17.45;4.72;;;;;;;12.71;100.00;101924.72;5216433;28;20432;-82
2024/02/05 11:24:21;;;;;;;18.35;4.57;;;;;;;12.75;100.00;101928.78;5217032;28;20033;-81
2024/02/05 11:26:55;;;;;;;;;;;;;;;13.32;100.00;101926.06;5219074;28;20025;-81
2024/02/05 11:29:35;;;;;;;20.30;5.18;;;;;;;12.85;100.00;101917.44;5217669;28;19912;-81
2024/02/05 11:32:07;;;;;;;16.98;4.38;;;;;;;12.76;100.00;101905.00;5217212;28;20042;-81
2024/02/05 11:34:42;;;;;;;18.75;5.30;;;;;;;12.84;100.00;101894.75;5219614;28;20357;-81